sensor_id;sensor_type;location;lat;lon;timestamp;pressure;altitude;pressure_sealevel;temperature;humidity
19600;BME280;9947;57.722;12.012;2023-02-12T00:00:43;102400.19;;;0.97;100.00
19600;BME280;9947;57.722;12.012;2023-02-12T00:03:17;102401.03;;;1.01;100.00
19600;BME280;9947;57.722;12.012;2023-02-12T00:05:44;102406.28;;;1.10;100.00
19600;BME280;9947;57.722;12.012;2023-02-12T00:08:22;102400.00;;;1.15;100.00
19600;BME280;9947;57.722;12.012;2023-02-12T00:10:50;102406.28;;;1.10;100.00
19600;BME280;9947;57.722;12.012;2023-02-12T00:13:24;102411.50;;;1.19;100.00
19600;BME280;9947;57.722;12.012;2023-02-12T00:16:05;102408.88;;;1.16;100.00
19600;BME280;9947;57.722;12.012;2023-02-12T00:18:39;102407.09;;;1.16;100.00
19600;BME280;9947;57.722;12.012;2023-02-12T00:21:06;102403.41;;;1.25;100.00
19600;BME280;9947;57.722;12.012;2023-02-12T00:23:42;102405.16;;;1.29;100.00
19600;BME280;9947;57.722;12.012;2023-02-12T00:26:11;102409.59;;;1.30;100.00
19600;BME280;9947;57.722;12.012;2023-02-12T00:28:45;102407.81;;;1.32;100.00
19600;BME280;9947;57.722;12.012;2023-02-12T00:31:25;102414.16;;;1.19;100.00
19600;BME280;9947;57.722;12.012;2023-02-12T00:33:59;102407.84;;;1.26;100.00
19600;BME280;9947;57.722;12.012;2023-02-12T00:36:28;102414.84;;;1.38;100.00
19600;BME280;9947;57.722;12.012;2023-02-12T00:39:02;102412.25;;;1.32;100.00
19600;BME280;9947;57.722;12.012;2023-02-12T00:41:29;102417.47;;;1.41;100.00
19600;BME280;9947;57.722;12.012;2023-02-12T00:44:03;102406.50;;;1.64;100.00
19600;BME280;9947;57.722;12.012;2023-02-12T00:46:31;102409.13;;;1.67;100.00
19600;BME280;9947;57.722;12.012;2023-02-12T00:49:05;102408.91;;;1.85;100.00
19600;BME280;9947;57.722;12.012;2023-02-12T00:51:32;102409.72;;;1.89;100.00
19600;BME280;9947;57.722;12.012;2023-02-12T00:54:10;102407.09;;;1.87;100.00
19600;BME280;9947;57.722;12.012;2023-02-12T00:56:38;102399.00;;;1.92;100.00
19600;BME280;9947;57.722;12.012;2023-02-12T00:59:11;102406.94;;;1.96;100.00
19600;BME280;9947;57.722;12.012;2023-02-12T01:01:40;102401.59;;;1.96;100.00
19600;BME280;9947;57.722;12.012;2023-02-12T01:04:13;102401.59;;;1.98;100.00
19600;BME280;9947;57.722;12.012;2023-02-12T01:06:41;102393.59;;;1.98;100.00
19600;BME280;9947;57.722;12.012;2023-02-12T01:09:22;102388.31;;;1.93;100.00
19600;BME280;9947;57.722;12.012;2023-02-12T01:11:51;102390.28;;;1.80;100.00
19600;BME280;9947;57.722;12.012;2023-02-12T01:14:25;102392.16;;;1.72;100.00
19600;BME280;9947;57.722;12.012;2023-02-12T01:17:01;102399.13;;;1.85;100.00
19600;BME280;9947;57.722;12.012;2023-02-12T01:19:34;102400.03;;;1.83;100.00
19600;BME280;9947;57.722;12.012;2023-02-12T01:22:10;102397.34;;;1.84;100.00
19600;BME280;9947;57.722;12.012;2023-02-12T01:24:38;102401.75;;;1.87;100.00
19600;BME280;9947;57.722;12.012;2023-02-12T01:27:12;102401.81;;;1.84;100.00
19600;BME280;9947;57.722;12.012;2023-02-12T01:29:45;102407.13;;;1.85;100.00
19600;BME280;9947;57.722;12.012;2023-02-12T01:32:13;102402.69;;;1.81;100.00
19600;BME280;9947;57.722;12.012;2023-02-12T01:34:47;102399.91;;;1.92;100.00
19600;BME280;9947;57.722;12.012;2023-02-12T01:37:14;102395.28;;;2.03;100.00
19600;BME280;9947;57.722;12.012;2023-02-12T01:39:50;102393.16;;;2.25;100.00
19600;BME280;9947;57.722;12.012;2023-02-12T01:42:17;102392.94;;;2.40;100.00
19600;BME280;9947;57.722;12.012;2023-02-12T01:45:32;102401.03;;;2.34;100.00
19600;BME280;9947;57.722;12.012;2023-02-12T01:48:12;102393.09;;;2.28;100.00
19600;BME280;9947;57.722;12.012;2023-02-12T01:50:48;102396.66;;;2.29;100.00
19600;BME280;9947;57.722;12.012;2023-02-12T01:53:34;102394.16;;;2.20;100.00
19600;BME280;9947;57.722;12.012;2023-02-12T01:56:04;102397.50;;;2.31;100.00
19600;BME280;9947;57.722;12.012;2023-02-12T01:58:41;102397.38;;;2.40;100.00
19600;BME280;9947;57.722;12.012;2023-02-12T02:01:12;102394.53;;;2.51;100.00
19600;BME280;9947;57.722;12.012;2023-02-12T02:03:51;102389.25;;;2.47;100.00
19600;BME280;9947;57.722;12.012;2023-02-12T02:06:22;102388.44;;;2.42;100.00
19600;BME280;9947;57.722;12.012;2023-02-12T02:08:57;102390.44;;;2.28;100.00
19600;BME280;9947;57.722;12.012;2023-02-12T02:11:24;102385.03;;;2.34;100.00
19600;BME280;9947;57.722;12.012;2023-02-12T02:14:15;102391.13;;;2.41;100.00
19600;BME280;9947;57.722;12.012;2023-02-12T02:17:12;102389.41;;;2.38;100.00
19600;BME280;9947;57.722;12.012;2023-02-12T02:23:08;102397.28;;;2.46;100.00
19600;BME280;9947;57.722;12.012;2023-02-12T02:26:11;102381.22;;;2.47;100.00
19600;BME280;9947;57.722;12.012;2023-02-12T02:29:13;102382.06;;;2.51;100.00
19600;BME280;9947;57.722;12.012;2023-02-12T02:31:50;102386.38;;;2.58;100.00
19600;BME280;9947;57.722;12.012;2023-02-12T02:34:37;102389.78;;;2.68;100.00
19600;BME280;9947;57.722;12.012;2023-02-12T02:37:13;102396.75;;;2.76;100.00
19600;BME280;9947;57.722;12.012;2023-02-12T02:39:51;102392.22;;;2.80;100.00
19600;BME280;9947;57.722;12.012;2023-02-12T02:42:26;102397.44;;;2.86;100.00
19600;BME280;9947;57.722;12.012;2023-02-12T02:45:05;102394.78;;;2.88;100.00
19600;BME280;9947;57.722;12.012;2023-02-12T02:47:44;102398.19;;;2.96;100.00
19600;BME280;9947;57.722;12.012;2023-02-12T02:50:21;102400.69;;;3.03;100.00
19600;BME280;9947;57.722;12.012;2023-02-12T02:52:51;102391.69;;;3.07;100.00
19600;BME280;9947;57.722;12.012;2023-02-12T02:55:30;102394.28;;;3.14;100.00
19600;BME280;9947;57.722;12.012;2023-02-12T02:58:09;102400.28;;;3.25;100.00
19600;BME280;9947;57.722;12.012;2023-02-12T03:00:40;102404.66;;;3.29;100.00
19600;BME280;9947;57.722;12.012;2023-02-12T03:03:22;102409.84;;;3.36;100.00
19600;BME280;9947;57.722;12.012;2023-02-12T03:06:01;102407.03;;;3.44;100.00
19600;BME280;9947;57.722;12.012;2023-02-12T03:08:38;102398.91;;;3.49;100.00
19600;BME280;9947;57.722;12.012;2023-02-12T03:11:09;102394.28;;;3.57;100.00
19600;BME280;9947;57.722;12.012;2023-02-12T03:13:47;102394.16;;;3.61;100.00
19600;BME280;9947;57.722;12.012;2023-02-12T03:16:17;102392.31;;;3.66;100.00
19600;BME280;9947;57.722;12.012;2023-02-12T03:18:57;102398.53;;;3.67;100.00
19600;BME280;9947;57.722;12.012;2023-02-12T03:21:38;102391.13;;;3.78;100.00
19600;BME280;9947;57.722;12.012;2023-02-12T03:24:17;102395.53;;;3.81;100.00
19600;BME280;9947;57.722;12.012;2023-02-12T03:26:49;102399.00;;;3.84;100.00
19600;BME280;9947;57.722;12.012;2023-02-12T03:29:25;102396.25;;;3.87;100.00
19600;BME280;9947;57.722;12.012;2023-02-12T03:31:59;102393.47;;;3.93;100.00
19600;BME280;9947;57.722;12.012;2023-02-12T03:34:46;102402.28;;;3.98;100.00
19600;BME280;9947;57.722;12.012;2023-02-12T03:37:18;102401.34;;;3.99;100.00
19600;BME280;9947;57.722;12.012;2023-02-12T03:39:56;102405.03;;;3.95;100.00
19600;BME280;9947;57.722;12.012;2023-02-12T03:42:32;102410.22;;;4.01;100.00
19600;BME280;9947;57.722;12.012;2023-02-12T03:45:09;102415.72;;;3.95;100.00
19600;BME280;9947;57.722;12.012;2023-02-12T03:47:56;102420.16;;;3.96;100.00
19600;BME280;9947;57.722;12.012;2023-02-12T03:50:33;102420.91;;;4.03;100.00
19600;BME280;9947;57.722;12.012;2023-02-12T03:53:09;102421.78;;;4.03;100.00
19600;BME280;9947;57.722;12.012;2023-02-12T03:55:47;102422.59;;;4.07;100.00
19600;BME280;9947;57.722;12.012;2023-02-12T03:58:24;102422.75;;;3.99;100.00
19600;BME280;9947;57.722;12.012;2023-02-12T04:00:53;102425.44;;;3.99;100.00
19600;BME280;9947;57.722;12.012;2023-02-12T04:03:28;102425.22;;;4.09;100.00
19600;BME280;9947;57.722;12.012;2023-02-12T04:05:56;102430.50;;;4.12;100.00
19600;BME280;9947;57.722;12.012;2023-02-12T04:08:30;102433.19;;;4.12;100.00
19600;BME280;9947;57.722;12.012;2023-02-12T04:11:09;102421.59;;;4.11;100.00
19600;BME280;9947;57.722;12.012;2023-02-12T04:14:00;102421.44;;;4.19;100.00
19600;BME280;9947;57.722;12.012;2023-02-12T04:16:42;102413.44;;;4.17;100.00
19600;BME280;9947;57.722;12.012;2023-02-12T04:19:22;102404.41;;;4.21;100.00
19600;BME280;9947;57.722;12.012;2023-02-12T04:22:10;102405.38;;;4.19;100.00
19600;BME280;9947;57.722;12.012;2023-02-12T04:24:51;102414.22;;;4.22;100.00
19600;BME280;9947;57.722;12.012;2023-02-12T04:27:34;102410.81;;;4.14;100.00
19600;BME280;9947;57.722;12.012;2023-02-12T04:30:16;102416.81;;;4.25;100.00
19600;BME280;9947;57.722;12.012;2023-02-12T04:32:57;102413.38;;;4.20;100.00
19600;BME280;9947;57.722;12.012;2023-02-12T04:35:30;102414.03;;;4.30;100.00
19600;BME280;9947;57.722;12.012;2023-02-12T04:38:11;102415.75;;;4.32;100.00
19600;BME280;9947;57.722;12.012;2023-02-12T04:40:39;102409.69;;;4.24;100.00
19600;BME280;9947;57.722;12.012;2023-02-12T04:43:13;102407.91;;;4.25;100.00
19600;BME280;9947;57.722;12.012;2023-02-12T04:45:40;102417.63;;;4.29;100.00
19600;BME280;9947;57.722;12.012;2023-02-12T04:48:14;102420.38;;;4.26;100.00
19600;BME280;9947;57.722;12.012;2023-02-12T04:50:42;102426.72;;;4.22;100.00
19600;BME280;9947;57.722;12.012;2023-02-12T04:53:24;102420.25;;;4.30;100.00
19600;BME280;9947;57.722;12.012;2023-02-12T04:55:51;102422.94;;;4.30;100.00
19600;BME280;9947;57.722;12.012;2023-02-12T04:58:25;102438.06;;;4.31;100.00
19600;BME280;9947;57.722;12.012;2023-02-12T05:00:52;102438.75;;;4.40;100.00
19600;BME280;9947;57.722;12.012;2023-02-12T05:03:26;102424.41;;;4.42;100.00
19600;BME280;9947;57.722;12.012;2023-02-12T05:05:54;102427.09;;;4.42;100.00
19600;BME280;9947;57.722;12.012;2023-02-12T05:08:29;102421.63;;;4.48;100.00
19600;BME280;9947;57.722;12.012;2023-02-12T05:11:03;102422.63;;;4.44;100.00
19600;BME280;9947;57.722;12.012;2023-02-12T05:13:37;102428.81;;;4.46;100.00
19600;BME280;9947;57.722;12.012;2023-02-12T05:16:07;102429.94;;;4.36;100.00
19600;BME280;9947;57.722;12.012;2023-02-12T05:18:40;102425.34;;;4.41;100.00
19600;BME280;9947;57.722;12.012;2023-02-12T05:21:07;102426.22;;;4.43;100.00
19600;BME280;9947;57.722;12.012;2023-02-12T05:23:42;102419.69;;;4.53;100.00
19600;BME280;9947;57.722;12.012;2023-02-12T05:26:12;102420.69;;;4.49;100.00
19600;BME280;9947;57.722;12.012;2023-02-12T05:28:46;102413.59;;;4.48;100.00
19600;BME280;9947;57.722;12.012;2023-02-12T05:31:16;102411.94;;;4.41;100.00
19600;BME280;9947;57.722;12.012;2023-02-12T05:33:50;102418.00;;;4.49;100.00
19600;BME280;9947;57.722;12.012;2023-02-12T05:36:19;102417.13;;;4.49;100.00
19600;BME280;9947;57.722;12.012;2023-02-12T05:38:58;102406.47;;;4.47;100.00
19600;BME280;9947;57.722;12.012;2023-02-12T05:41:26;102408.03;;;4.56;100.00
19600;BME280;9947;57.722;12.012;2023-02-12T05:44:00;102400.03;;;4.54;100.00
19600;BME280;9947;57.722;12.012;2023-02-12T05:46:27;102407.16;;;4.55;100.00
19600;BME280;9947;57.722;12.012;2023-02-12T05:49:08;102393.72;;;4.57;100.00
19600;BME280;9947;57.722;12.012;2023-02-12T05:51:36;102393.75;;;4.55;100.00
19600;BME280;9947;57.722;12.012;2023-02-12T05:54:15;102394.31;;;4.68;100.00
19600;BME280;9947;57.722;12.012;2023-02-12T05:56:48;102397.19;;;4.60;100.00
19600;BME280;9947;57.722;12.012;2023-02-12T05:59:22;102392.91;;;4.53;100.00
19600;BME280;9947;57.722;12.012;2023-02-12T06:01:50;102397.28;;;4.57;100.00
19600;BME280;9947;57.722;12.012;2023-02-12T06:04:26;102390.34;;;4.49;100.00
19600;BME280;9947;57.722;12.012;2023-02-12T06:06:54;102399.94;;;4.57;100.00
19600;BME280;9947;57.722;12.012;2023-02-12T06:09:29;102402.53;;;4.60;100.00
19600;BME280;9947;57.722;12.012;2023-02-12T06:11:56;102412.59;;;4.52;100.00
19600;BME280;9947;57.722;12.012;2023-02-12T06:14:30;102400.81;;;4.58;100.00
19600;BME280;9947;57.722;12.012;2023-02-12T06:17:03;102412.41;;;4.58;100.00
19600;BME280;9947;57.722;12.012;2023-02-12T06:19:37;102406.91;;;4.64;100.00
19600;BME280;9947;57.722;12.012;2023-02-12T06:22:04;102411.28;;;4.69;100.00
19600;BME280;9947;57.722;12.012;2023-02-12T06:24:40;102424.59;;;4.72;100.00
19600;BME280;9947;57.722;12.012;2023-02-12T06:27:07;102423.63;;;4.74;100.00
19600;BME280;9947;57.722;12.012;2023-02-12T06:29:40;102425.63;;;4.66;100.00
19600;BME280;9947;57.722;12.012;2023-02-12T06:32:07;102423.81;;;4.67;100.00
19600;BME280;9947;57.722;12.012;2023-02-12T06:34:41;102422.00;;;4.67;100.00
19600;BME280;9947;57.722;12.012;2023-02-12T06:37:08;102424.69;;;4.67;100.00
19600;BME280;9947;57.722;12.012;2023-02-12T06:39:44;102427.31;;;4.70;100.00
19600;BME280;9947;57.722;12.012;2023-02-12T06:42:10;102419.63;;;4.56;100.00
19600;BME280;9947;57.722;12.012;2023-02-12T06:44:44;102431.13;;;4.60;100.00
19600;BME280;9947;57.722;12.012;2023-02-12T06:47:18;102428.56;;;4.55;100.00
19600;BME280;9947;57.722;12.012;2023-02-12T06:50:00;102421.34;;;4.59;100.00
19600;BME280;9947;57.722;12.012;2023-02-12T06:52:27;102426.69;;;4.59;100.00
19600;BME280;9947;57.722;12.012;2023-02-12T06:55:02;102440.88;;;4.62;100.00
19600;BME280;9947;57.722;12.012;2023-02-12T06:57:29;102428.41;;;4.61;100.00
19600;BME280;9947;57.722;12.012;2023-02-12T07:00:04;102431.06;;;4.63;100.00
19600;BME280;9947;57.722;12.012;2023-02-12T07:02:31;102433.66;;;4.66;100.00
19600;BME280;9947;57.722;12.012;2023-02-12T07:05:05;102438.28;;;4.59;100.00
19600;BME280;9947;57.722;12.012;2023-02-12T07:07:32;102437.38;;;4.60;100.00
19600;BME280;9947;57.722;12.012;2023-02-12T07:10:09;102448.97;;;4.61;100.00
19600;BME280;9947;57.722;12.012;2023-02-12T07:12:36;102446.13;;;4.69;100.00
19600;BME280;9947;57.722;12.012;2023-02-12T07:15:09;102451.34;;;4.73;100.00
19600;BME280;9947;57.722;12.012;2023-02-12T07:17:43;102444.13;;;4.77;100.00
19600;BME280;9947;57.722;12.012;2023-02-12T07:20:11;102440.44;;;4.81;100.00
19600;BME280;9947;57.722;12.012;2023-02-12T07:22:44;102449.59;;;4.72;100.00
19600;BME280;9947;57.722;12.012;2023-02-12T07:25:18;102433.66;;;4.66;100.00
19600;BME280;9947;57.722;12.012;2023-02-12T07:27:52;102437.06;;;4.73;100.00
19600;BME280;9947;57.722;12.012;2023-02-12T07:30:19;102429.16;;;4.67;100.00
19600;BME280;9947;57.722;12.012;2023-02-12T07:32:53;102433.47;;;4.74;100.00
19600;BME280;9947;57.722;12.012;2023-02-12T07:35:20;102429.78;;;4.78;100.00
19600;BME280;9947;57.722;12.012;2023-02-12T07:37:53;102432.50;;;4.76;100.00
19600;BME280;9947;57.722;12.012;2023-02-12T07:40:21;102429.75;;;4.79;100.00
19600;BME280;9947;57.722;12.012;2023-02-12T07:42:55;102429.03;;;4.73;100.00
19600;BME280;9947;57.722;12.012;2023-02-12T07:45:23;102436.94;;;4.77;100.00
19600;BME280;9947;57.722;12.012;2023-02-12T07:48:03;102425.41;;;4.75;100.00
19600;BME280;9947;57.722;12.012;2023-02-12T07:50:37;102428.78;;;4.82;100.00
19600;BME280;9947;57.722;12.012;2023-02-12T07:53:10;102430.56;;;4.83;100.00
19600;BME280;9947;57.722;12.012;2023-02-12T07:55:38;102435.81;;;4.86;100.00
19600;BME280;9947;57.722;12.012;2023-02-12T07:58:12;102441.31;;;4.81;100.00
19600;BME280;9947;57.722;12.012;2023-02-12T08:00:39;102448.09;;;4.96;100.00
19600;BME280;9947;57.722;12.012;2023-02-12T08:03:12;102437.31;;;4.98;100.00
19600;BME280;9947;57.722;12.012;2023-02-12T08:05:39;102441.84;;;4.95;100.00
19600;BME280;9947;57.722;12.012;2023-02-12T08:08:12;102452.56;;;4.95;100.00
19600;BME280;9947;57.722;12.012;2023-02-12T08:10:40;102440.72;;;5.04;100.00
19600;BME280;9947;57.722;12.012;2023-02-12T08:13:14;102435.34;;;5.04;100.00
19600;BME280;9947;57.722;12.012;2023-02-12T08:15:47;102441.38;;;5.12;100.00
19600;BME280;9947;57.722;12.012;2023-02-12T08:18:27;102426.97;;;5.16;100.00
19600;BME280;9947;57.722;12.012;2023-02-12T08:20:54;102426.31;;;5.08;100.00
19600;BME280;9947;57.722;12.012;2023-02-12T08:23:29;102438.91;;;5.05;100.00
19600;BME280;9947;57.722;12.012;2023-02-12T08:26:06;102428.09;;;5.08;100.00
19600;BME280;9947;57.722;12.012;2023-02-12T08:28:41;102427.00;;;5.15;100.00
19600;BME280;9947;57.722;12.012;2023-02-12T08:31:11;102418.81;;;5.21;100.00
19600;BME280;9947;57.722;12.012;2023-02-12T08:33:46;102420.63;;;5.20;100.00
19600;BME280;9947;57.722;12.012;2023-02-12T08:36:15;102436.84;;;5.14;100.00
19600;BME280;9947;57.722;12.012;2023-02-12T08:38:49;102430.56;;;5.15;100.00
19600;BME280;9947;57.722;12.012;2023-02-12T08:41:19;102428.72;;;5.17;100.00
19600;BME280;9947;57.722;12.012;2023-02-12T08:43:54;102432.19;;;5.22;100.00
19600;BME280;9947;57.722;12.012;2023-02-12T08:46:24;102428.75;;;5.16;100.00
19600;BME280;9947;57.722;12.012;2023-02-12T08:48:59;102426.97;;;5.16;100.00
19600;BME280;9947;57.722;12.012;2023-02-12T08:51:29;102427.94;;;5.14;100.00
19600;BME280;9947;57.722;12.012;2023-02-12T08:54:04;102431.56;;;5.11;100.00
19600;BME280;9947;57.722;12.012;2023-02-12T08:56:39;102433.25;;;5.15;100.00
19600;BME280;9947;57.722;12.012;2023-02-12T08:59:14;102434.72;;;5.27;100.00
19600;BME280;9947;57.722;12.012;2023-02-12T09:01:42;102437.28;;;5.32;100.00
19600;BME280;9947;57.722;12.012;2023-02-12T09:04:18;102437.88;;;5.41;100.00
19600;BME280;9947;57.722;12.012;2023-02-12T09:06:51;102453.16;;;5.39;100.00
19600;BME280;9947;57.722;12.012;2023-02-12T09:09:25;102454.63;;;5.51;100.00
19600;BME280;9947;57.722;12.012;2023-02-12T09:12:00;102458.06;;;5.56;100.00
19600;BME280;9947;57.722;12.012;2023-02-12T09:14:34;102466.06;;;5.57;100.00
19600;BME280;9947;57.722;12.012;2023-02-12T09:17:01;102459.06;;;5.52;100.00
19600;BME280;9947;57.722;12.012;2023-02-12T09:19:34;102462.22;;;5.66;100.00
19600;BME280;9947;57.722;12.012;2023-02-12T09:22:01;102466.47;;;5.75;100.00
19600;BME280;9947;57.722;12.012;2023-02-12T09:24:35;102469.84;;;5.81;100.00
19600;BME280;9947;57.722;12.012;2023-02-12T09:27:04;102464.81;;;5.69;100.00
19600;BME280;9947;57.722;12.012;2023-02-12T09:29:37;102469.94;;;5.78;100.00
19600;BME280;9947;57.722;12.012;2023-02-12T09:32:04;102473.25;;;5.86;100.00
19600;BME280;9947;57.722;12.012;2023-02-12T09:34:37;102460.41;;;5.98;100.00
19600;BME280;9947;57.722;12.012;2023-02-12T09:37:04;102467.63;;;5.96;100.00
19600;BME280;9947;57.722;12.012;2023-02-12T09:39:37;102472.81;;;6.03;100.00
19600;BME280;9947;57.722;12.012;2023-02-12T09:42:44;102469.19;;;6.04;100.00
19600;BME280;9947;57.722;12.012;2023-02-12T09:45:27;102469.53;;;6.22;100.00
19600;BME280;9947;57.722;12.012;2023-02-12T09:48:02;102466.44;;;6.35;100.00
19600;BME280;9947;57.722;12.012;2023-02-12T09:50:45;102468.50;;;6.27;100.00
19600;BME280;9947;57.722;12.012;2023-02-12T09:53:16;102478.41;;;6.24;100.00
19600;BME280;9947;57.722;12.012;2023-02-12T09:55:50;102473.97;;;6.23;100.00
19600;BME280;9947;57.722;12.012;2023-02-12T09:58:30;102463.13;;;6.27;100.00
19600;BME280;9947;57.722;12.012;2023-02-12T10:01:00;102466.19;;;6.43;100.00
19600;BME280;9947;57.722;12.012;2023-02-12T10:03:34;102465.50;;;6.36;100.00
19600;BME280;9947;57.722;12.012;2023-02-12T10:06:04;102476.34;;;6.33;100.00
19600;BME280;9947;57.722;12.012;2023-02-12T10:09:02;102467.88;;;6.45;100.00
19600;BME280;9947;57.722;12.012;2023-02-12T10:11:54;102469.47;;;6.53;100.00
19600;BME280;9947;57.722;12.012;2023-02-12T10:14:59;102482.66;;;6.60;100.00
19600;BME280;9947;57.722;12.012;2023-02-12T10:17:36;102484.97;;;6.71;100.00
19600;BME280;9947;57.722;12.012;2023-02-12T10:20:32;102481.88;;;6.57;100.00
19600;BME280;9947;57.722;12.012;2023-02-12T10:23:20;102487.97;;;6.62;100.00
19600;BME280;9947;57.722;12.012;2023-02-12T10:25:58;102483.88;;;6.76;100.00
19600;BME280;9947;57.722;12.012;2023-02-12T10:28:37;102479.22;;;6.83;100.00
19600;BME280;9947;57.722;12.012;2023-02-12T10:31:10;102486.59;;;7.03;100.00
19600;BME280;9947;57.722;12.012;2023-02-12T10:33:47;102481.31;;;7.00;100.00
19600;BME280;9947;57.722;12.012;2023-02-12T10:36:22;102483.66;;;7.10;100.00
19600;BME280;9947;57.722;12.012;2023-02-12T10:39:02;102480.41;;;7.26;100.00
19600;BME280;9947;57.722;12.012;2023-02-12T10:41:36;102476.84;;;7.25;100.00
19600;BME280;9947;57.722;12.012;2023-02-12T10:44:11;102474.09;;;7.27;100.00
19600;BME280;9947;57.722;12.012;2023-02-12T10:46:42;102479.81;;;7.18;100.00
19600;BME280;9947;57.722;12.012;2023-02-12T10:49:17;102475.84;;;7.28;100.00
19600;BME280;9947;57.722;12.012;2023-02-12T10:54:43;102483.91;;;7.29;100.00
19600;BME280;9947;57.722;12.012;2023-02-12T10:57:19;102486.25;;;7.38;100.00
19600;BME280;9947;57.722;12.012;2023-02-12T10:59:56;102487.56;;;7.52;100.00
19600;BME280;9947;57.722;12.012;2023-02-12T11:02:59;102492.88;;;7.53;100.00
19600;BME280;9947;57.722;12.012;2023-02-12T11:05:35;102485.59;;;7.57;100.00
19600;BME280;9947;57.722;12.012;2023-02-12T11:08:03;102490.88;;;7.60;100.00
19600;BME280;9947;57.722;12.012;2023-02-12T11:10:38;102487.19;;;7.37;100.00
19600;BME280;9947;57.722;12.012;2023-02-12T11:13:22;102496.31;;;7.58;100.00
19600;BME280;9947;57.722;12.012;2023-02-12T11:15:50;102498.53;;;7.46;100.00
19600;BME280;9947;57.722;12.012;2023-02-12T11:18:26;102489.47;;;7.48;100.00
19600;BME280;9947;57.722;12.012;2023-02-12T11:20:58;102491.53;;;7.41;100.00
19600;BME280;9947;57.722;12.012;2023-02-12T11:23:33;102485.66;;;7.30;100.00
19600;BME280;9947;57.722;12.012;2023-02-12T11:26:04;102478.28;;;7.35;100.00
19600;BME280;9947;57.722;12.012;2023-02-12T11:28:37;102483.03;;;7.27;100.00
19600;BME280;9947;57.722;12.012;2023-02-12T11:31:20;102486.59;;;7.28;100.00
19600;BME280;9947;57.722;12.012;2023-02-12T11:34:08;102490.16;;;7.30;100.00
19600;BME280;9947;57.722;12.012;2023-02-12T11:36:37;102482.16;;;7.27;100.00
19600;BME280;9947;57.722;12.012;2023-02-12T11:39:20;102497.66;;;7.45;100.00
19600;BME280;9947;57.722;12.012;2023-02-12T11:41:55;102492.28;;;7.45;100.00
19600;BME280;9947;57.722;12.012;2023-02-12T11:44:34;102486.41;;;7.34;100.00
19600;BME280;9947;57.722;12.012;2023-02-12T11:47:18;102495.47;;;7.31;100.00
19600;BME280;9947;57.722;12.012;2023-02-12T11:49:50;102490.81;;;7.36;100.00
19600;BME280;9947;57.722;12.012;2023-02-12T11:52:28;102498.13;;;7.33;100.00
19600;BME280;9947;57.722;12.012;2023-02-12T11:54:58;102493.56;;;7.35;100.00
19600;BME280;9947;57.722;12.012;2023-02-12T11:57:37;102495.47;;;7.31;100.00
19600;BME280;9947;57.722;12.012;2023-02-12T12:00:14;102493.97;;;7.23;100.00
19600;BME280;9947;57.722;12.012;2023-02-12T12:02:52;102487.06;;;7.16;100.00
19600;BME280;9947;57.722;12.012;2023-02-12T12:05:35;102483.31;;;7.20;100.00
19600;BME280;9947;57.722;12.012;2023-02-12T12:08:06;102479.19;;;7.09;100.00
19600;BME280;9947;57.722;12.012;2023-02-12T12:10:47;102480.69;;;7.18;100.00
19600;BME280;9947;57.722;12.012;2023-02-12T12:13:28;102470.75;;;7.20;100.00
19600;BME280;9947;57.722;12.012;2023-02-12T12:16:03;102476.41;;;7.13;100.00
19600;BME280;9947;57.722;12.012;2023-02-12T12:19:07;102473.66;;;7.14;100.00
19600;BME280;9947;57.722;12.012;2023-02-12T12:22:25;102471.91;;;7.13;100.00
19600;BME280;9947;57.722;12.012;2023-02-12T12:25:07;102481.44;;;7.22;100.00
19600;BME280;9947;57.722;12.012;2023-02-12T12:27:51;102484.38;;;7.16;100.00
19600;BME280;9947;57.722;12.012;2023-02-12T12:31:02;102477.81;;;7.23;100.00
19600;BME280;9947;57.722;12.012;2023-02-12T12:33:41;102473.91;;;7.33;100.00
19600;BME280;9947;57.722;12.012;2023-02-12T12:36:34;102477.34;;;7.36;100.00
19600;BME280;9947;57.722;12.012;2023-02-12T12:39:30;102480.22;;;7.32;100.00
19600;BME280;9947;57.722;12.012;2023-02-12T12:42:23;102489.34;;;7.26;100.00
19600;BME280;9947;57.722;12.012;2023-02-12T12:45:13;102485.91;;;7.23;100.00
19600;BME280;9947;57.722;12.012;2023-02-12T12:47:56;102482.09;;;7.30;100.00
19600;BME280;9947;57.722;12.012;2023-02-12T12:50:47;102481.84;;;7.36;100.00
19600;BME280;9947;57.722;12.012;2023-02-12T12:53:31;102490.22;;;7.27;100.00
19600;BME280;9947;57.722;12.012;2023-02-12T12:56:39;102488.94;;;7.38;100.00
19600;BME280;9947;57.722;12.012;2023-02-12T12:59:32;102486.09;;;7.43;100.00
19600;BME280;9947;57.722;12.012;2023-02-12T13:05:57;102481.03;;;7.34;100.00
19600;BME280;9947;57.722;12.012;2023-02-12T13:09:06;102492.88;;;7.53;100.00
19600;BME280;9947;57.722;12.012;2023-02-12T13:12:02;102477.72;;;7.51;100.00
19600;BME280;9947;57.722;12.012;2023-02-12T13:15:40;102485.41;;;7.61;100.00
19600;BME280;9947;57.722;12.012;2023-02-12T13:18:25;102483.19;;;7.72;100.00
19600;BME280;9947;57.722;12.012;2023-02-12T13:20:59;102484.97;;;7.49;100.00
19600;BME280;9947;57.722;12.012;2023-02-12T13:23:40;102483.56;;;7.38;100.00
19600;BME280;9947;57.722;12.012;2023-02-12T13:26:17;102484.59;;;7.34;100.00
19600;BME280;9947;57.722;12.012;2023-02-12T13:29:00;102488.13;;;7.36;100.00
19600;BME280;9947;57.722;12.012;2023-02-12T13:31:34;102484.19;;;7.20;100.00
19600;BME280;9947;57.722;12.012;2023-02-12T13:34:14;102488.81;;;7.17;100.00
19600;BME280;9947;57.722;12.012;2023-02-12T13:36:42;102490.50;;;7.19;100.00
19600;BME280;9947;57.722;12.012;2023-02-12T13:39:26;102473.53;;;7.17;100.00
19600;BME280;9947;57.722;12.012;2023-02-12T13:42:15;102481.66;;;7.16;100.00
19600;BME280;9947;57.722;12.012;2023-02-12T13:44:56;102485.28;;;7.15;100.00
19600;BME280;9947;57.722;12.012;2023-02-12T13:47:39;102501.53;;;7.11;100.00